Terminal Aerodrome Forecast
Issued by NWS

Home | Current Version | Previous Version | Text Only | Print | Product List | Glossary Off
Versions: 1 2 3 4 5 6 7 8 9 10 11 12 13 14 15 16 17 18 19

000
FTUS43 KMPX 221457 AAB
TAFRNH
TAF AMD
KRNH 221457Z 2215/2312 33014G20KT P6SM SCT020
      TEMPO 2216/2218 BKN018
     FM221800 32016G22KT P6SM SCT025 SCT250
     FM230000 34007KT P6SM FEW250=

USA.gov is the U.S. government's official web portal to all federal, state and local government web resources and services.